createdAt,value
2023-04-27T00:01:16.678Z,13.40
2023-04-27T00:03:46.094Z,10.63
2023-04-27T00:06:13.851Z,11.80
2023-04-27T00:08:42.257Z,11.98
2023-04-27T00:13:36.959Z,8.73
2023-04-27T00:16:04.546Z,8.88
2023-04-27T00:18:32.958Z,13.80
2023-04-27T00:21:00.623Z,12.82
2023-04-27T00:23:28.336Z,13.52
2023-04-27T00:25:55.882Z,14.65
2023-04-27T00:28:23.246Z,8.32
2023-04-27T00:30:50.907Z,9.57
2023-04-27T00:33:18.292Z,13.52
2023-04-27T00:35:45.752Z,11.13
2023-04-27T00:38:15.389Z,10.35
2023-04-27T00:40:42.788Z,11.73
2023-04-27T00:43:10.156Z,10.80
2023-04-27T00:45:43.823Z,12.15
2023-04-27T00:48:12.530Z,9.45
2023-04-27T00:50:41.860Z,11.00
2023-04-27T00:53:09.365Z,9.63
2023-04-27T00:55:36.853Z,15.98
2023-04-27T00:58:04.298Z,9.80
2023-04-27T01:00:32.337Z,10.85
2023-04-27T01:03:02.192Z,13.00
2023-04-27T01:05:31.321Z,8.93
2023-04-27T01:07:59.951Z,10.02
2023-04-27T01:10:28.704Z,9.18
2023-04-27T01:12:56.421Z,12.52
2023-04-27T01:15:23.897Z,10.63
2023-04-27T01:18:02.148Z,12.07
2023-04-27T01:20:33.816Z,10.32
2023-04-27T01:23:01.216Z,11.98
2023-04-27T01:25:28.857Z,15.35
2023-04-27T01:27:56.443Z,11.48
2023-04-27T01:30:25.392Z,11.05
2023-04-27T01:32:52.830Z,8.30
2023-04-27T01:35:20.567Z,13.80
2023-04-27T01:37:48.061Z,7.87
2023-04-27T01:40:20.743Z,10.00
2023-04-27T01:42:48.302Z,9.25
2023-04-27T01:45:15.846Z,7.97
2023-04-27T01:47:43.327Z,9.10
2023-04-27T01:50:12.157Z,9.20
2023-04-27T01:57:38.532Z,12.10
2023-04-27T02:00:07.211Z,10.65
2023-04-27T02:02:54.403Z,16.83
2023-04-27T02:05:24.393Z,11.75
2023-04-27T02:07:53.592Z,15.57
2023-04-27T02:10:25.127Z,19.88
2023-04-27T02:13:00.636Z,20.02
2023-04-27T02:15:29.935Z,20.88
2023-04-27T02:18:00.331Z,14.05
2023-04-27T02:20:33.492Z,11.40
2023-04-27T02:23:05.121Z,13.07
2023-04-27T02:25:32.985Z,14.43
2023-04-27T02:28:01.152Z,15.13
2023-04-27T02:30:30.969Z,11.35
2023-04-27T02:33:01.213Z,11.18
2023-04-27T02:35:40.699Z,14.65
2023-04-27T02:38:08.781Z,17.65
2023-04-27T02:40:39.405Z,10.80
2023-04-27T02:43:07.484Z,12.50
2023-04-27T02:45:55.771Z,14.20
2023-04-27T02:48:28.718Z,12.70
2023-04-27T02:50:57.045Z,10.17
2023-04-27T02:53:24.792Z,11.98
2023-04-27T02:55:53.774Z,14.65
2023-04-27T02:58:24.932Z,13.43
2023-04-27T03:00:58.257Z,13.23
2023-04-27T03:03:25.978Z,14.05
2023-04-27T03:05:54.092Z,11.02
2023-04-27T03:10:51.782Z,12.38
2023-04-27T03:13:19.174Z,11.52
2023-04-27T03:15:46.582Z,15.97
2023-04-27T03:18:14.362Z,13.70
2023-04-27T03:20:42.218Z,10.73
2023-04-27T03:23:09.681Z,11.70
2023-04-27T03:25:37.117Z,12.33
2023-04-27T03:28:04.824Z,13.43
2023-04-27T03:30:32.263Z,15.68
2023-04-27T03:32:59.901Z,14.10
2023-04-27T03:35:27.765Z,9.07
2023-04-27T03:38:01.071Z,13.07
2023-04-27T03:40:35.748Z,12.85
2023-04-27T03:43:03.168Z,9.70
2023-04-27T03:45:31.428Z,12.43
2023-04-27T03:48:02.843Z,11.00
2023-04-27T03:50:37.895Z,15.18
2023-04-27T03:53:05.318Z,10.02
2023-04-27T03:55:34.912Z,12.17
2023-04-27T03:58:02.227Z,9.65
2023-04-27T04:00:30.076Z,13.50
2023-04-27T04:03:08.734Z,14.60
2023-04-27T04:05:36.837Z,17.63
2023-04-27T04:08:07.441Z,10.80
2023-04-27T04:10:37.682Z,11.65
2023-04-27T04:13:05.051Z,11.15
2023-04-27T04:15:32.513Z,9.93
2023-04-27T04:18:02.568Z,9.30
2023-04-27T04:20:30.002Z,13.90
2023-04-27T04:22:57.310Z,13.53
2023-04-27T04:25:26.300Z,11.93
2023-04-27T04:27:54.061Z,11.65
2023-04-27T04:30:23.021Z,10.98
2023-04-27T04:32:50.658Z,15.60
2023-04-27T04:35:19.770Z,14.18
2023-04-27T04:37:54.477Z,18.13
2023-04-27T04:40:21.820Z,11.90
2023-04-27T04:42:54.409Z,16.67
2023-04-27T04:45:30.321Z,13.68
2023-04-27T04:47:58.692Z,15.77
2023-04-27T04:50:26.210Z,11.45
2023-04-27T04:52:57.857Z,26.08
2023-04-27T04:55:29.360Z,16.50
2023-04-27T04:57:59.293Z,15.63
2023-04-27T05:00:29.180Z,14.45
2023-04-27T05:02:56.809Z,18.13
2023-04-27T05:05:29.219Z,10.45
2023-04-27T05:07:56.591Z,12.50
2023-04-27T05:10:23.878Z,14.93
2023-04-27T05:12:51.202Z,17.43
2023-04-27T05:15:18.640Z,14.10
2023-04-27T05:17:46.509Z,11.50
2023-04-27T05:20:14.138Z,15.85
2023-04-27T05:22:41.545Z,16.52
2023-04-27T05:25:11.599Z,14.77
2023-04-27T05:27:39.116Z,11.27
2023-04-27T05:30:08.032Z,12.23
2023-04-27T05:32:37.520Z,14.32
2023-04-27T05:35:05.722Z,10.25
2023-04-27T05:40:00.392Z,9.40
2023-04-27T05:42:27.807Z,11.77
2023-04-27T05:44:55.474Z,14.50
2023-04-27T05:47:23.285Z,16.95
2023-04-27T05:49:52.873Z,16.07
2023-04-27T05:52:21.036Z,12.43
2023-04-27T05:57:17.080Z,27.77
2023-04-27T05:59:44.490Z,17.05
2023-04-27T06:02:11.978Z,17.15
2023-04-27T06:04:39.520Z,19.60
2023-04-27T06:07:11.667Z,19.15
2023-04-27T06:09:39.600Z,20.10
2023-04-27T06:12:08.766Z,26.55
2023-04-27T06:14:38.298Z,14.98
2023-04-27T06:17:05.945Z,20.70
2023-04-27T06:19:33.382Z,8.73
2023-04-27T06:22:00.872Z,11.30
2023-04-27T06:24:28.844Z,9.10
2023-04-27T06:29:23.564Z,9.40
2023-04-27T06:31:50.976Z,10.17
2023-04-27T06:34:18.376Z,6.85
2023-04-27T06:36:45.845Z,10.07
2023-04-27T06:39:13.242Z,10.80
2023-04-27T06:41:40.707Z,13.07
2023-04-27T06:44:21.813Z,16.10
2023-04-27T06:46:49.078Z,14.88
2023-04-27T06:49:18.869Z,4.57
2023-04-27T06:51:46.868Z,4.05
2023-04-27T06:54:16.593Z,4.97
2023-04-27T06:56:44.912Z,12.07
2023-04-27T06:59:14.984Z,7.13
2023-04-27T07:01:42.593Z,7.75
2023-04-27T07:04:10.005Z,11.18
2023-04-27T07:06:37.552Z,8.63
2023-04-27T07:09:19.973Z,9.73
2023-04-27T07:11:54.234Z,6.85
2023-04-27T07:14:37.568Z,18.02
2023-04-27T07:17:04.870Z,16.55
2023-04-27T07:19:32.398Z,8.07
2023-04-27T07:21:59.676Z,12.82
2023-04-27T07:24:27.010Z,10.70
2023-04-27T07:26:55.639Z,11.15
2023-04-27T07:29:27.080Z,8.93
2023-04-27T07:31:58.537Z,6.88
2023-04-27T07:34:35.032Z,6.32
2023-04-27T07:37:09.814Z,7.32
2023-04-27T07:39:37.103Z,7.43
2023-04-27T07:42:05.464Z,10.52
2023-04-27T07:44:52.668Z,10.05
2023-04-27T07:47:20.214Z,6.25
2023-04-27T07:49:48.162Z,7.97
2023-04-27T07:54:50.157Z,7.20
2023-04-27T07:57:17.432Z,9.38
2023-04-27T07:59:45.174Z,10.77
2023-04-27T08:02:19.746Z,10.18
2023-04-27T08:04:53.218Z,7.20
2023-04-27T08:07:20.958Z,11.73
2023-04-27T08:12:19.519Z,8.23
2023-04-27T08:14:47.560Z,7.68
2023-04-27T08:19:42.251Z,13.52
2023-04-27T08:22:09.599Z,8.70
2023-04-27T08:24:38.253Z,12.30
2023-04-27T08:27:09.528Z,10.65
2023-04-27T08:29:39.176Z,19.75
2023-04-27T08:32:11.468Z,7.05
2023-04-27T08:34:38.955Z,14.20
2023-04-27T08:37:07.019Z,6.63
2023-04-27T08:39:34.508Z,14.40
2023-04-27T08:42:01.823Z,14.23
2023-04-27T08:44:29.908Z,12.70
2023-04-27T08:47:01.347Z,8.52
2023-04-27T08:49:28.672Z,6.22
2023-04-27T08:51:56.182Z,7.50
2023-04-27T08:54:23.593Z,11.35
2023-04-27T08:56:50.958Z,10.18
2023-04-27T08:59:18.320Z,13.27
2023-04-27T09:01:49.053Z,15.20
2023-04-27T09:04:18.275Z,18.38
2023-04-27T09:06:46.512Z,7.10
2023-04-27T09:09:24.095Z,13.80
2023-04-27T09:11:53.866Z,14.68
2023-04-27T09:14:24.086Z,16.95
2023-04-27T09:17:00.141Z,10.93
2023-04-27T09:19:30.231Z,10.48
2023-04-27T09:22:23.884Z,11.32
2023-04-27T09:24:52.759Z,9.38
2023-04-27T09:27:24.660Z,6.80
2023-04-27T09:29:52.107Z,14.35
2023-04-27T09:32:21.095Z,7.90
2023-04-27T09:34:48.858Z,14.57
2023-04-27T09:37:16.578Z,8.20
2023-04-27T09:39:46.088Z,4.32
2023-04-27T09:42:13.740Z,9.90
2023-04-27T09:44:42.280Z,15.85
2023-04-27T09:47:10.896Z,18.60
2023-04-27T09:49:40.450Z,6.30
2023-04-27T09:52:07.945Z,6.35
2023-04-27T09:54:36.587Z,8.57
2023-04-27T09:57:20.179Z,6.18
2023-04-27T10:00:01.801Z,9.43
2023-04-27T10:02:53.892Z,10.55
2023-04-27T10:05:38.502Z,8.10
2023-04-27T10:08:07.631Z,6.97
2023-04-27T10:10:49.762Z,4.03
2023-04-27T10:13:24.892Z,12.27
2023-04-27T10:15:54.532Z,6.60
2023-04-27T10:18:31.258Z,8.65
2023-04-27T10:21:10.999Z,7.18
2023-04-27T10:23:48.599Z,6.75
2023-04-27T10:26:27.835Z,4.97
2023-04-27T10:29:07.337Z,6.18
2023-04-27T10:31:41.100Z,7.95
2023-04-27T10:34:10.961Z,6.03
2023-04-27T10:36:41.089Z,4.35
2023-04-27T10:39:29.805Z,5.07
2023-04-27T10:42:01.225Z,6.32
2023-04-27T10:44:31.441Z,7.68
2023-04-27T10:47:17.132Z,14.60
2023-04-27T10:49:44.784Z,25.88
2023-04-27T10:52:12.554Z,16.50
2023-04-27T10:54:40.056Z,26.67
2023-04-27T10:57:09.997Z,14.90
2023-04-27T10:59:55.729Z,9.93
2023-04-27T11:02:30.513Z,8.52
2023-04-27T11:04:58.760Z,9.95
2023-04-27T11:07:35.712Z,2.33
2023-04-27T11:10:02.979Z,5.05
2023-04-27T11:12:32.527Z,2.33
2023-04-27T11:14:59.850Z,2.92
2023-04-27T11:17:32.833Z,7.20
2023-04-27T11:20:00.402Z,5.28
2023-04-27T11:22:27.946Z,6.53
2023-04-27T11:24:56.012Z,2.53
2023-04-27T11:29:52.534Z,4.07
2023-04-27T11:32:24.319Z,4.18
2023-04-27T11:34:57.192Z,1.80
2023-04-27T11:37:29.086Z,6.78
2023-04-27T11:40:00.775Z,1.65
2023-04-27T11:42:31.645Z,2.05
2023-04-27T11:45:08.360Z,7.28
2023-04-27T11:47:39.366Z,1.85
2023-04-27T11:50:09.874Z,7.47
2023-04-27T11:52:40.391Z,4.28
2023-04-27T11:55:13.858Z,3.08
2023-04-27T11:57:46.579Z,3.17
2023-04-27T12:00:16.858Z,6.88
2023-04-27T12:02:45.162Z,2.70
2023-04-27T12:05:13.978Z,10.15
2023-04-27T12:07:42.330Z,6.15
2023-04-27T12:10:10.468Z,3.92
2023-04-27T12:12:40.786Z,7.93
2023-04-27T12:15:09.771Z,3.92
2023-04-27T12:17:40.479Z,7.07
2023-04-27T12:20:11.309Z,7.82
2023-04-27T12:22:38.982Z,9.27
2023-04-27T12:25:06.799Z,10.45
2023-04-27T12:27:34.405Z,10.30
2023-04-27T12:30:01.781Z,4.95
2023-04-27T12:32:33.219Z,5.72
2023-04-27T12:35:00.740Z,2.72
2023-04-27T12:37:28.907Z,5.72
2023-04-27T12:39:56.393Z,6.00
2023-04-27T12:42:24.671Z,5.05
2023-04-27T12:44:52.542Z,7.72
2023-04-27T12:47:45.914Z,7.15
2023-04-27T12:50:10.307Z,4.47
2023-04-27T12:52:37.792Z,7.35
2023-04-27T12:55:06.521Z,7.32
2023-04-27T12:57:34.055Z,4.05
2023-04-27T13:00:05.732Z,5.55
2023-04-27T13:02:35.147Z,5.47
2023-04-27T13:05:07.982Z,3.30
2023-04-27T13:07:36.540Z,5.32
2023-04-27T13:10:04.263Z,6.30
2023-04-27T13:12:32.749Z,3.55
2023-04-27T13:15:00.124Z,9.30
2023-04-27T13:17:27.525Z,13.75
2023-04-27T13:19:54.898Z,3.45
2023-04-27T13:22:22.225Z,6.05
2023-04-27T13:24:49.815Z,1.75
2023-04-27T13:27:17.393Z,3.42
2023-04-27T13:29:44.725Z,5.28
2023-04-27T13:32:15.105Z,2.58
2023-04-27T13:34:42.508Z,2.17
2023-04-27T13:37:09.793Z,6.05
2023-04-27T13:39:37.781Z,5.90
2023-04-27T13:42:07.250Z,8.52
2023-04-27T13:44:34.626Z,6.85
2023-04-27T13:47:02.429Z,8.05
2023-04-27T13:49:29.746Z,4.35
2023-04-27T13:51:57.116Z,6.43
2023-04-27T13:54:27.346Z,6.70
2023-04-27T13:56:54.880Z,7.72
2023-04-27T13:59:22.171Z,6.28
2023-04-27T14:01:49.460Z,3.42
2023-04-27T14:04:16.854Z,3.75
2023-04-27T14:06:50.242Z,11.90
2023-04-27T14:09:20.875Z,4.03
2023-04-27T14:11:56.179Z,8.60
2023-04-27T14:14:24.457Z,10.82
2023-04-27T14:16:53.510Z,11.23
2023-04-27T14:19:41.527Z,6.88
2023-04-27T14:22:09.764Z,6.07
2023-04-27T14:24:37.123Z,8.75
2023-04-27T14:27:04.487Z,2.83
2023-04-27T14:29:32.172Z,9.32
2023-04-27T14:31:59.574Z,5.65
2023-04-27T14:34:26.867Z,9.23
2023-04-27T14:36:54.155Z,7.75
2023-04-27T14:39:21.716Z,5.30
2023-04-27T14:41:49.105Z,9.27
2023-04-27T14:44:16.421Z,6.75
2023-04-27T14:46:43.733Z,3.85
2023-04-27T14:49:11.522Z,9.27
2023-04-27T14:54:06.513Z,3.45
2023-04-27T14:56:33.875Z,5.20
2023-04-27T14:59:01.666Z,7.55
2023-04-27T15:01:29.114Z,6.18
2023-04-27T15:03:58.181Z,4.35
2023-04-27T15:06:28.846Z,6.72
2023-04-27T15:08:56.476Z,8.68
2023-04-27T15:11:24.061Z,8.90
2023-04-27T15:13:51.496Z,29.35
2023-04-27T15:16:20.272Z,7.15
2023-04-27T15:18:47.659Z,11.43
2023-04-27T15:21:15.552Z,5.13
2023-04-27T15:23:43.079Z,8.82
2023-04-27T15:26:10.467Z,5.68
2023-04-27T15:28:40.224Z,5.82
2023-04-27T15:31:07.913Z,10.98
2023-04-27T15:33:35.296Z,5.90
2023-04-27T15:36:03.238Z,3.97
2023-04-27T15:38:30.539Z,4.97
2023-04-27T15:41:00.298Z,7.43
2023-04-27T15:43:27.684Z,8.02
2023-04-27T15:45:58.023Z,8.80
2023-04-27T15:48:28.197Z,8.13
2023-04-27T15:50:55.645Z,8.82
2023-04-27T15:53:23.188Z,9.30
2023-04-27T15:55:50.775Z,5.78
2023-04-27T15:58:36.998Z,8.25
2023-04-27T16:01:07.577Z,7.05
2023-04-27T16:03:35.919Z,10.13
2023-04-27T16:06:06.766Z,10.88
2023-04-27T16:08:34.315Z,11.38
2023-04-27T16:11:01.650Z,15.43
2023-04-27T16:13:29.259Z,20.73
2023-04-27T16:15:58.315Z,16.02
2023-04-27T16:18:25.825Z,9.55
2023-04-27T16:20:53.456Z,11.52
2023-04-27T16:23:23.109Z,14.35
2023-04-27T16:25:51.250Z,11.60
2023-04-27T16:28:18.707Z,12.82
2023-04-27T16:30:46.060Z,10.73
2023-04-27T16:33:16.558Z,12.45
2023-04-27T16:35:46.809Z,8.40
2023-04-27T16:40:41.468Z,8.35
2023-04-27T16:43:09.102Z,19.08
2023-04-27T16:45:36.843Z,14.05
2023-04-27T16:48:04.570Z,10.32
2023-04-27T16:50:34.570Z,15.25
2023-04-27T16:53:11.078Z,15.00
2023-04-27T16:55:38.587Z,13.93
2023-04-27T16:58:07.771Z,11.48
2023-04-27T17:00:35.466Z,8.85
2023-04-27T17:03:02.946Z,32.92
2023-04-27T17:05:30.589Z,10.52
2023-04-27T17:07:58.025Z,18.63
2023-04-27T17:10:25.619Z,11.05
2023-04-27T17:12:53.066Z,8.77
2023-04-27T17:15:20.726Z,10.60
2023-04-27T17:17:48.356Z,8.60
2023-04-27T17:20:20.259Z,9.73
2023-04-27T17:22:47.681Z,9.10
2023-04-27T17:25:15.193Z,9.57
2023-04-27T17:27:42.623Z,10.98
2023-04-27T17:30:13.578Z,10.23
2023-04-27T17:32:41.446Z,12.45
2023-04-27T17:35:12.201Z,9.88
2023-04-27T17:37:43.973Z,9.45
2023-04-27T17:40:16.613Z,11.52
2023-04-27T17:42:43.955Z,9.02
2023-04-27T17:45:12.819Z,11.00
2023-04-27T17:47:40.531Z,16.35
2023-04-27T17:50:09.230Z,12.32
2023-04-27T17:52:36.693Z,12.52
2023-04-27T17:55:04.579Z,13.88
2023-04-27T17:57:32.244Z,9.95
2023-04-27T18:00:00.964Z,10.23
2023-04-27T18:02:31.894Z,8.60
2023-04-27T18:04:59.558Z,9.95
2023-04-27T18:07:27.015Z,8.10
2023-04-27T18:09:54.685Z,12.55
2023-04-27T18:12:22.210Z,13.35
2023-04-27T18:14:52.983Z,18.48
2023-04-27T18:17:21.251Z,14.43
2023-04-27T18:20:00.953Z,16.23
2023-04-27T18:22:36.477Z,20.17
2023-04-27T18:25:04.257Z,20.33
2023-04-27T18:27:33.082Z,24.30
2023-04-27T18:30:00.844Z,28.27
2023-04-27T18:32:28.373Z,26.05
2023-04-27T18:34:57.042Z,27.73
2023-04-27T18:37:24.490Z,30.90
2023-04-27T18:39:52.998Z,19.13
2023-04-27T18:42:20.802Z,19.17
2023-04-27T18:44:48.610Z,14.85
2023-04-27T18:47:16.371Z,14.80
2023-04-27T18:49:43.806Z,17.02
2023-04-27T18:54:39.158Z,22.48
2023-04-27T18:57:07.051Z,17.05
2023-04-27T18:59:34.717Z,16.42
2023-04-27T19:02:02.238Z,17.55
2023-04-27T19:04:29.863Z,30.30
2023-04-27T19:06:57.460Z,21.45
2023-04-27T19:09:25.035Z,21.98
2023-04-27T19:11:59.997Z,48.75
2023-04-27T19:14:31.785Z,22.63
2023-04-27T19:16:59.344Z,17.00
2023-04-27T19:19:27.991Z,17.02
2023-04-27T19:21:56.141Z,15.80
2023-04-27T19:24:23.505Z,15.75
2023-04-27T19:26:51.199Z,18.60
2023-04-27T19:29:18.771Z,17.40
2023-04-27T19:31:46.204Z,24.90
2023-04-27T19:34:13.706Z,31.50
2023-04-27T19:36:41.198Z,20.50
2023-04-27T19:39:08.796Z,25.30
2023-04-27T19:41:36.308Z,23.13
2023-04-27T19:44:03.771Z,31.73
2023-04-27T19:46:31.676Z,25.85
2023-04-27T19:48:59.232Z,25.05
2023-04-27T19:51:26.850Z,18.38
2023-04-27T19:53:54.273Z,23.00
2023-04-27T19:56:21.820Z,15.73
2023-04-27T19:58:49.236Z,20.85
2023-04-27T20:01:16.704Z,18.97
2023-04-27T20:03:44.415Z,22.00
2023-04-27T20:06:11.931Z,20.77
2023-04-27T20:08:39.413Z,19.80
2023-04-27T20:11:06.806Z,17.80
2023-04-27T20:13:34.307Z,20.93
2023-04-27T20:16:01.739Z,21.00
2023-04-27T20:18:32.016Z,15.35
2023-04-27T20:20:59.976Z,16.45
2023-04-27T20:23:27.388Z,14.10
2023-04-27T20:25:54.852Z,15.23
2023-04-27T20:28:22.323Z,15.82
2023-04-27T20:30:49.678Z,18.23
2023-04-27T20:33:17.904Z,15.60
2023-04-27T20:38:14.527Z,16.10
2023-04-27T20:40:42.372Z,19.38
2023-04-27T20:43:09.902Z,31.80
2023-04-27T20:45:37.402Z,16.15
2023-04-27T20:48:07.341Z,16.42
2023-04-27T20:50:35.016Z,18.80
2023-04-27T20:53:02.422Z,15.65
2023-04-27T20:55:29.847Z,20.23
2023-04-27T20:57:58.468Z,18.53
2023-04-27T21:00:26.249Z,18.08
2023-04-27T21:02:53.950Z,15.30
2023-04-27T21:05:21.568Z,19.67
2023-04-27T21:07:48.967Z,14.40
2023-04-27T21:10:16.572Z,15.10
2023-04-27T21:12:44.194Z,14.02
2023-04-27T21:15:12.233Z,18.30
2023-04-27T21:17:39.692Z,10.20
2023-04-27T21:20:09.946Z,19.25
2023-04-27T21:22:37.719Z,17.45
2023-04-27T21:25:05.501Z,12.95
2023-04-27T21:27:33.050Z,13.40
2023-04-27T21:30:00.609Z,18.60
2023-04-27T21:32:28.411Z,19.25
2023-04-27T21:34:55.854Z,15.07
2023-04-27T21:37:23.220Z,20.23
2023-04-27T21:39:50.736Z,20.25
2023-04-27T21:42:18.308Z,17.77
2023-04-27T21:44:47.126Z,12.38
2023-04-27T21:47:14.530Z,12.05
2023-04-27T21:49:41.965Z,15.23
2023-04-27T21:52:10.643Z,16.48
2023-04-27T21:54:38.040Z,15.73
2023-04-27T21:57:05.524Z,13.48
2023-04-27T21:59:33.246Z,16.88
2023-04-27T22:02:02.334Z,13.95
2023-04-27T22:04:31.179Z,17.42
2023-04-27T22:06:58.812Z,12.75
2023-04-27T22:09:26.121Z,14.07
2023-04-27T22:11:53.498Z,14.43
2023-04-27T22:14:21.162Z,10.45
2023-04-27T23:58:06.423Z,8.65
